sensor_id;sensor_type;location;lat;lon;timestamp;pressure;altitude;pressure_sealevel;temperature;humidity
48790;BME280;41718;51.980;5.734;2022-11-06T00:03:11;101267.47;;;8.45;100.00
48790;BME280;41718;51.980;5.734;2022-11-06T00:08:13;101268.91;;;8.37;100.00
48790;BME280;41718;51.980;5.734;2022-11-06T00:13:15;101272.53;;;8.44;100.00
48790;BME280;41718;51.980;5.734;2022-11-06T00:18:17;101275.22;;;8.47;100.00
48790;BME280;41718;51.980;5.734;2022-11-06T00:23:18;101289.03;;;8.49;100.00
48790;BME280;41718;51.980;5.734;2022-11-06T00:28:20;101271.72;;;8.45;100.00
48790;BME280;41718;51.980;5.734;2022-11-06T00:33:21;101265.88;;;8.50;100.00
48790;BME280;41718;51.980;5.734;2022-11-06T00:38:23;101270.22;;;8.52;100.00
48790;BME280;41718;51.980;5.734;2022-11-06T00:43:24;101258.13;;;8.50;100.00
48790;BME280;41718;51.980;5.734;2022-11-06T00:48:26;101260.50;;;8.43;100.00
48790;BME280;41718;51.980;5.734;2022-11-06T00:53:27;101254.50;;;8.44;100.00
48790;BME280;41718;51.980;5.734;2022-11-06T00:58:29;101247.59;;;8.43;100.00
48790;BME280;41718;51.980;5.734;2022-11-06T01:03:30;101245.94;;;8.45;100.00
48790;BME280;41718;51.980;5.734;2022-11-06T01:08:31;101239.09;;;8.45;100.00
48790;BME280;41718;51.980;5.734;2022-11-06T01:13:33;101238.16;;;8.43;100.00
48790;BME280;41718;51.980;5.734;2022-11-06T01:18:37;101234.72;;;8.43;100.00
48790;BME280;41718;51.980;5.734;2022-11-06T01:23:39;101232.00;;;8.38;100.00
48790;BME280;41718;51.980;5.734;2022-11-06T01:28:41;101228.28;;;8.30;100.00
48790;BME280;41718;51.980;5.734;2022-11-06T01:33:42;101226.53;;;8.29;100.00
48790;BME280;41718;51.980;5.734;2022-11-06T01:38:46;101223.84;;;8.26;100.00
48790;BME280;41718;51.980;5.734;2022-11-06T01:43:53;101218.63;;;8.23;100.00
48790;BME280;41718;51.980;5.734;2022-11-06T01:49:05;101221.06;;;8.18;100.00
48790;BME280;41718;51.980;5.734;2022-11-06T01:54:08;101212.47;;;8.18;100.00
48790;BME280;41718;51.980;5.734;2022-11-06T01:59:13;101202.16;;;8.18;100.00
48790;BME280;41718;51.980;5.734;2022-11-06T02:04:21;101186.63;;;8.16;100.00
48790;BME280;41718;51.980;5.734;2022-11-06T02:09:23;101190.16;;;8.20;100.00
48790;BME280;41718;51.980;5.734;2022-11-06T02:30:36;101176.53;;;8.22;100.00
48790;BME280;41718;51.980;5.734;2022-11-06T02:36:00;101180.88;;;8.25;100.00
48790;BME280;41718;51.980;5.734;2022-11-06T02:41:06;101174.06;;;8.27;100.00
48790;BME280;41718;51.980;5.734;2022-11-06T02:46:13;101167.97;;;8.23;100.00
48790;BME280;41718;51.980;5.734;2022-11-06T02:51:19;101170.53;;;8.23;100.00
48790;BME280;41718;51.980;5.734;2022-11-06T02:56:25;101155.91;;;8.22;100.00
48790;BME280;41718;51.980;5.734;2022-11-06T03:01:31;101164.63;;;8.28;100.00
48790;BME280;41718;51.980;5.734;2022-11-06T03:06:41;101169.84;;;8.29;100.00
48790;BME280;41718;51.980;5.734;2022-11-06T03:11:59;101179.38;;;8.33;100.00
48790;BME280;41718;51.980;5.734;2022-11-06T03:17:11;101166.56;;;8.35;100.00
48790;BME280;41718;51.980;5.734;2022-11-06T03:27:40;101164.94;;;8.37;100.00
48790;BME280;41718;51.980;5.734;2022-11-06T03:37:59;101166.84;;;8.44;100.00
48790;BME280;41718;51.980;5.734;2022-11-06T03:43:05;101157.38;;;8.43;100.00
48790;BME280;41718;51.980;5.734;2022-11-06T03:48:12;101145.44;;;8.46;100.00
48790;BME280;41718;51.980;5.734;2022-11-06T03:53:52;101142.03;;;8.47;100.00
48790;BME280;41718;51.980;5.734;2022-11-06T03:58:55;101129.19;;;8.49;100.00
48790;BME280;41718;51.980;5.734;2022-11-06T04:04:01;101139.63;;;8.54;100.00
48790;BME280;41718;51.980;5.734;2022-11-06T04:09:08;101126.81;;;8.57;100.00
48790;BME280;41718;51.980;5.734;2022-11-06T04:14:30;101124.19;;;8.55;100.00
48790;BME280;41718;51.980;5.734;2022-11-06T04:19:33;101110.38;;;8.53;100.00
48790;BME280;41718;51.980;5.734;2022-11-06T04:30:14;101093.34;;;8.58;100.00
48790;BME280;41718;51.980;5.734;2022-11-06T04:35:42;101096.91;;;8.63;100.00
48790;BME280;41718;51.980;5.734;2022-11-06T04:40:58;101084.16;;;8.68;100.00
48790;BME280;41718;51.980;5.734;2022-11-06T04:46:09;101091.16;;;8.73;100.00
48790;BME280;41718;51.980;5.734;2022-11-06T04:51:12;101092.06;;;8.75;100.00
48790;BME280;41718;51.980;5.734;2022-11-06T04:56:22;101077.50;;;8.77;100.00
48790;BME280;41718;51.980;5.734;2022-11-06T05:01:26;101071.44;;;8.75;100.00
48790;BME280;41718;51.980;5.734;2022-11-06T05:06:27;101073.16;;;8.75;100.00
48790;BME280;41718;51.980;5.734;2022-11-06T05:11:30;101082.75;;;8.81;100.00
48790;BME280;41718;51.980;5.734;2022-11-06T05:16:32;101078.38;;;8.78;100.00
48790;BME280;41718;51.980;5.734;2022-11-06T05:21:33;101072.28;;;8.74;100.00
48790;BME280;41718;51.980;5.734;2022-11-06T05:26:53;101059.28;;;8.71;100.00
48790;BME280;41718;51.980;5.734;2022-11-06T05:31:59;101062.78;;;8.73;100.00
48790;BME280;41718;51.980;5.734;2022-11-06T05:37:01;101053.25;;;8.71;100.00
48790;BME280;41718;51.980;5.734;2022-11-06T05:42:02;101046.41;;;8.71;100.00
48790;BME280;41718;51.980;5.734;2022-11-06T05:47:04;101048.97;;;8.71;100.00
48790;BME280;41718;51.980;5.734;2022-11-06T05:52:05;101037.03;;;8.75;100.00
48790;BME280;41718;51.980;5.734;2022-11-06T05:57:07;101029.22;;;8.72;100.00
48790;BME280;41718;51.980;5.734;2022-11-06T06:02:08;101030.06;;;8.71;100.00
48790;BME280;41718;51.980;5.734;2022-11-06T06:07:10;101022.31;;;8.71;100.00
48790;BME280;41718;51.980;5.734;2022-11-06T06:12:12;101035.31;;;8.74;100.00
48790;BME280;41718;51.980;5.734;2022-11-06T06:17:14;101017.19;;;8.72;100.00
48790;BME280;41718;51.980;5.734;2022-11-06T06:22:15;101022.41;;;8.74;100.00
48790;BME280;41718;51.980;5.734;2022-11-06T06:27:17;101012.13;;;8.75;100.00
48790;BME280;41718;51.980;5.734;2022-11-06T06:32:18;101008.66;;;8.75;100.00
48790;BME280;41718;51.980;5.734;2022-11-06T06:37:20;101000.88;;;8.73;100.00
48790;BME280;41718;51.980;5.734;2022-11-06T06:42:21;101001.72;;;8.72;100.00
48790;BME280;41718;51.980;5.734;2022-11-06T06:47:30;101008.59;;;8.72;100.00
48790;BME280;41718;51.980;5.734;2022-11-06T06:52:31;101008.59;;;8.73;100.00
48790;BME280;41718;51.980;5.734;2022-11-06T06:57:33;101007.69;;;8.70;100.00
48790;BME280;41718;51.980;5.734;2022-11-06T07:02:34;101007.69;;;8.70;100.00
48790;BME280;41718;51.980;5.734;2022-11-06T07:07:36;101009.28;;;8.66;100.00
48790;BME280;41718;51.980;5.734;2022-11-06T07:12:37;100996.50;;;8.69;100.00
48790;BME280;41718;51.980;5.734;2022-11-06T07:17:39;100980.16;;;8.69;100.00
48790;BME280;41718;51.980;5.734;2022-11-06T07:22:41;100978.50;;;8.72;100.00
48790;BME280;41718;51.980;5.734;2022-11-06T07:27:42;100979.47;;;8.77;100.00
48790;BME280;41718;51.980;5.734;2022-11-06T07:32:44;100996.03;;;8.86;100.00
48790;BME280;41718;51.980;5.734;2022-11-06T07:37:45;100995.31;;;8.91;100.00
48790;BME280;41718;51.980;5.734;2022-11-06T07:42:47;100996.19;;;8.92;100.00
48790;BME280;41718;51.980;5.734;2022-11-06T07:47:48;100993.66;;;8.95;100.00
48790;BME280;41718;51.980;5.734;2022-11-06T07:52:53;100985.06;;;8.94;100.00
48790;BME280;41718;51.980;5.734;2022-11-06T07:57:57;100986.84;;;8.97;100.00
48790;BME280;41718;51.980;5.734;2022-11-06T08:02:59;100990.41;;;9.02;100.00
48790;BME280;41718;51.980;5.734;2022-11-06T08:08:00;100972.50;;;9.10;100.00
48790;BME280;41718;51.980;5.734;2022-11-06T08:13:02;100974.38;;;9.15;100.00
48790;BME280;41718;51.980;5.734;2022-11-06T08:18:04;100972.69;;;9.19;100.00
48790;BME280;41718;51.980;5.734;2022-11-06T08:23:07;100983.25;;;9.28;100.00
48790;BME280;41718;51.980;5.734;2022-11-06T08:28:10;100975.66;;;9.36;100.00
48790;BME280;41718;51.980;5.734;2022-11-06T08:33:12;100961.25;;;9.45;100.00
48790;BME280;41718;51.980;5.734;2022-11-06T08:38:14;100944.97;;;9.49;100.00
48790;BME280;41718;51.980;5.734;2022-11-06T08:43:16;100939.13;;;9.58;100.00
48790;BME280;41718;51.980;5.734;2022-11-06T08:48:18;100933.88;;;9.53;100.00
48790;BME280;41718;51.980;5.734;2022-11-06T08:53:19;100919.16;;;9.49;100.00
48790;BME280;41718;51.980;5.734;2022-11-06T08:58:21;100917.38;;;9.47;100.00
48790;BME280;41718;51.980;5.734;2022-11-06T09:03:22;100916.56;;;9.49;100.00
48790;BME280;41718;51.980;5.734;2022-11-06T09:08:24;100921.91;;;9.59;100.00
48790;BME280;41718;51.980;5.734;2022-11-06T09:13:25;100903.88;;;9.60;100.00
48790;BME280;41718;51.980;5.734;2022-11-06T09:18:27;100893.56;;;9.60;100.00
48790;BME280;41718;51.980;5.734;2022-11-06T09:23:28;100887.75;;;9.73;100.00
48790;BME280;41718;51.980;5.734;2022-11-06T09:28:30;100886.34;;;9.89;100.00
48790;BME280;41718;51.980;5.734;2022-11-06T09:33:31;100873.63;;;10.01;100.00
48790;BME280;41718;51.980;5.734;2022-11-06T09:38:33;100871.22;;;10.11;100.00
48790;BME280;41718;51.980;5.734;2022-11-06T09:54:24;100872.50;;;10.34;100.00
48790;BME280;41718;51.980;5.734;2022-11-06T09:59:29;100873.47;;;10.41;100.00
48790;BME280;41718;51.980;5.734;2022-11-06T10:10:16;100867.75;;;10.61;100.00
48790;BME280;41718;51.980;5.734;2022-11-06T10:15:24;100871.31;;;10.70;100.00
48790;BME280;41718;51.980;5.734;2022-11-06T10:20:31;100856.72;;;10.75;100.00
48790;BME280;41718;51.980;5.734;2022-11-06T10:31:08;100850.94;;;10.94;100.00
48790;BME280;41718;51.980;5.734;2022-11-06T10:36:14;100821.88;;;11.17;100.00
48790;BME280;41718;51.980;5.734;2022-11-06T10:41:21;100819.47;;;11.29;100.00
48790;BME280;41718;51.980;5.734;2022-11-06T10:46:37;100820.53;;;11.49;100.00
48790;BME280;41718;51.980;5.734;2022-11-06T10:52:08;100814.66;;;11.65;100.00
48790;BME280;41718;51.980;5.734;2022-11-06T11:02:45;100788.69;;;11.61;100.00
48790;BME280;41718;51.980;5.734;2022-11-06T11:07:50;100793.09;;;11.68;100.00
48790;BME280;41718;51.980;5.734;2022-11-06T11:12:54;100778.06;;;11.32;100.00
48790;BME280;41718;51.980;5.734;2022-11-06T11:23:13;100765.94;;;11.29;100.00
48790;BME280;41718;51.980;5.734;2022-11-06T11:28:42;100765.16;;;11.38;100.00
48790;BME280;41718;51.980;5.734;2022-11-06T11:33:53;100746.97;;;11.30;100.00
48790;BME280;41718;51.980;5.734;2022-11-06T11:38:55;100747.09;;;11.46;100.00
48790;BME280;41718;51.980;5.734;2022-11-06T11:44:04;100747.94;;;11.43;100.00
48790;BME280;41718;51.980;5.734;2022-11-06T11:49:24;100737.69;;;11.55;100.00
48790;BME280;41718;51.980;5.734;2022-11-06T11:54:29;100720.50;;;11.65;100.00
48790;BME280;41718;51.980;5.734;2022-11-06T11:59:45;100710.16;;;11.63;100.00
48790;BME280;41718;51.980;5.734;2022-11-06T12:04:59;100697.16;;;11.60;100.00
48790;BME280;41718;51.980;5.734;2022-11-06T12:10:31;100703.28;;;11.70;100.00
48790;BME280;41718;51.980;5.734;2022-11-06T12:15:50;100681.69;;;11.71;100.00
48790;BME280;41718;51.980;5.734;2022-11-06T12:21:36;100666.13;;;11.73;100.00
48790;BME280;41718;51.980;5.734;2022-11-06T12:26:53;100660.91;;;11.65;100.00
48790;BME280;41718;51.980;5.734;2022-11-06T12:37:56;100645.19;;;11.40;100.00
48790;BME280;41718;51.980;5.734;2022-11-06T12:59:29;100619.19;;;11.30;100.00
48790;BME280;41718;51.980;5.734;2022-11-06T13:10:38;100620.03;;;11.24;100.00
48790;BME280;41718;51.980;5.734;2022-11-06T13:16:09;100610.53;;;11.26;100.00
48790;BME280;41718;51.980;5.734;2022-11-06T13:21:53;100611.38;;;11.25;100.00
48790;BME280;41718;51.980;5.734;2022-11-06T13:32:34;100597.56;;;11.25;100.00
48790;BME280;41718;51.980;5.734;2022-11-06T13:37:38;100601.00;;;11.22;100.00
48790;BME280;41718;51.980;5.734;2022-11-06T13:42:45;100594.97;;;11.23;100.00
48790;BME280;41718;51.980;5.734;2022-11-06T14:04:22;100581.91;;;11.08;100.00
48790;BME280;41718;51.980;5.734;2022-11-06T14:09:32;100583.56;;;11.01;100.00
48790;BME280;41718;51.980;5.734;2022-11-06T14:14:35;100592.97;;;10.92;100.00
48790;BME280;41718;51.980;5.734;2022-11-06T14:19:39;100592.00;;;10.79;100.00
48790;BME280;41718;51.980;5.734;2022-11-06T14:24:50;100603.78;;;10.52;100.00
48790;BME280;41718;51.980;5.734;2022-11-06T14:29:57;100619.84;;;10.25;100.00
48790;BME280;41718;51.980;5.734;2022-11-06T14:40:31;100611.56;;;9.87;100.00
48790;BME280;41718;51.980;5.734;2022-11-06T14:45:34;100616.44;;;9.69;100.00
48790;BME280;41718;51.980;5.734;2022-11-06T14:50:39;100601.53;;;9.49;100.00
48790;BME280;41718;51.980;5.734;2022-11-06T14:55:57;100595.16;;;9.27;100.00
48790;BME280;41718;51.980;5.734;2022-11-06T15:01:11;100594.78;;;9.03;100.00
48790;BME280;41718;51.980;5.734;2022-11-06T15:16:40;100572.69;;;8.69;100.00
48790;BME280;41718;51.980;5.734;2022-11-06T15:21:53;100568.22;;;8.60;100.00
48790;BME280;41718;51.980;5.734;2022-11-06T15:27:02;100577.47;;;8.49;100.00
48790;BME280;41718;51.980;5.734;2022-11-06T15:32:18;100550.63;;;8.38;100.00
48790;BME280;41718;51.980;5.734;2022-11-06T15:37:31;100524.50;;;8.21;100.00
48790;BME280;41718;51.980;5.734;2022-11-06T16:03:23;100491.66;;;7.67;100.00
48790;BME280;41718;51.980;5.734;2022-11-06T16:08:28;100477.72;;;7.57;100.00
48790;BME280;41718;51.980;5.734;2022-11-06T16:13:32;100463.97;;;7.55;100.00
48790;BME280;41718;51.980;5.734;2022-11-06T16:18:43;100455.16;;;7.44;100.00
48790;BME280;41718;51.980;5.734;2022-11-06T16:23:54;100438.06;;;7.48;100.00
48790;BME280;41718;51.980;5.734;2022-11-06T16:28:59;100431.06;;;7.42;100.00
48790;BME280;41718;51.980;5.734;2022-11-06T16:34:04;100404.47;;;7.41;100.00
48790;BME280;41718;51.980;5.734;2022-11-06T16:44:47;100379.59;;;7.40;100.00
48790;BME280;41718;51.980;5.734;2022-11-06T16:49:57;100368.44;;;7.40;100.00
48790;BME280;41718;51.980;5.734;2022-11-06T16:55:05;100372.59;;;7.35;100.00
48790;BME280;41718;51.980;5.734;2022-11-06T17:00:25;100369.06;;;7.30;100.00
48790;BME280;41718;51.980;5.734;2022-11-06T17:05:29;100359.50;;;7.23;100.00
48790;BME280;41718;51.980;5.734;2022-11-06T17:10:39;100362.91;;;7.22;100.00
48790;BME280;41718;51.980;5.734;2022-11-06T17:16:00;100370.47;;;7.14;100.00
48790;BME280;41718;51.980;5.734;2022-11-06T17:21:05;100361.13;;;7.17;100.00
48790;BME280;41718;51.980;5.734;2022-11-06T17:26:17;100362.81;;;7.17;100.00
48790;BME280;41718;51.980;5.734;2022-11-06T17:31:25;100366.41;;;7.25;100.00
48790;BME280;41718;51.980;5.734;2022-11-06T17:36:29;100341.50;;;7.23;100.00
48790;BME280;41718;51.980;5.734;2022-11-06T17:41:32;100344.13;;;7.26;100.00
48790;BME280;41718;51.980;5.734;2022-11-06T17:46:37;100348.41;;;7.25;100.00
48790;BME280;41718;51.980;5.734;2022-11-06T17:51:40;100363.06;;;7.29;100.00
48790;BME280;41718;51.980;5.734;2022-11-06T17:56:54;100354.47;;;7.29;100.00
48790;BME280;41718;51.980;5.734;2022-11-06T18:01:58;100348.44;;;7.27;100.00
48790;BME280;41718;51.980;5.734;2022-11-06T18:07:00;100338.22;;;7.31;100.00
48790;BME280;41718;51.980;5.734;2022-11-06T18:12:08;100328.06;;;7.37;100.00
48790;BME280;41718;51.980;5.734;2022-11-06T18:17:10;100353.00;;;7.40;100.00
48790;BME280;41718;51.980;5.734;2022-11-06T18:22:12;100345.28;;;7.40;100.00
48790;BME280;41718;51.980;5.734;2022-11-06T18:27:14;100334.16;;;7.42;100.00
48790;BME280;41718;51.980;5.734;2022-11-06T18:32:17;100334.31;;;7.50;100.00
48790;BME280;41718;51.980;5.734;2022-11-06T18:37:19;100334.34;;;7.53;100.00
48790;BME280;41718;51.980;5.734;2022-11-06T18:42:29;100326.69;;;7.55;100.00
48790;BME280;41718;51.980;5.734;2022-11-06T18:47:30;100322.34;;;7.54;100.00
48790;BME280;41718;51.980;5.734;2022-11-06T18:52:33;100340.56;;;7.63;100.00
48790;BME280;41718;51.980;5.734;2022-11-06T18:57:55;100346.63;;;7.66;100.00
48790;BME280;41718;51.980;5.734;2022-11-06T19:02:59;100346.75;;;7.73;100.00
48790;BME280;41718;51.980;5.734;2022-11-06T19:08:01;100344.19;;;7.74;100.00
48790;BME280;41718;51.980;5.734;2022-11-06T19:13:04;100343.44;;;7.80;100.00
48790;BME280;41718;51.980;5.734;2022-11-06T19:18:05;100336.75;;;7.91;100.00
48790;BME280;41718;51.980;5.734;2022-11-06T19:23:07;100351.38;;;7.93;100.00
48790;BME280;41718;51.980;5.734;2022-11-06T19:28:14;100355.78;;;7.99;100.00
48790;BME280;41718;51.980;5.734;2022-11-06T19:33:17;100352.38;;;8.00;100.00
48790;BME280;41718;51.980;5.734;2022-11-06T19:38:20;100339.53;;;8.02;100.00
48790;BME280;41718;51.980;5.734;2022-11-06T19:43:26;100347.28;;;8.03;100.00
48790;BME280;41718;51.980;5.734;2022-11-06T19:48:29;100352.41;;;8.02;100.00
48790;BME280;41718;51.980;5.734;2022-11-06T19:53:33;100336.94;;;8.00;100.00
48790;BME280;41718;51.980;5.734;2022-11-06T19:58:36;100335.25;;;8.04;100.00
48790;BME280;41718;51.980;5.734;2022-11-06T20:03:38;100338.78;;;8.10;100.00
48790;BME280;41718;51.980;5.734;2022-11-06T20:08:39;100344.00;;;8.12;100.00
48790;BME280;41718;51.980;5.734;2022-11-06T20:13:44;100337.22;;;8.17;100.00
48790;BME280;41718;51.980;5.734;2022-11-06T20:18:52;100351.00;;;8.20;100.00
48790;BME280;41718;51.980;5.734;2022-11-06T20:23:55;100348.44;;;8.22;100.00
48790;BME280;41718;51.980;5.734;2022-11-06T20:28:57;100352.91;;;8.32;100.00
48790;BME280;41718;51.980;5.734;2022-11-06T20:33:59;100340.13;;;8.38;100.00
48790;BME280;41718;51.980;5.734;2022-11-06T20:39:02;100348.88;;;8.48;100.00
48790;BME280;41718;51.980;5.734;2022-11-06T20:44:03;100349.00;;;8.56;100.00
48790;BME280;41718;51.980;5.734;2022-11-06T20:49:05;100353.59;;;8.75;100.00
48790;BME280;41718;51.980;5.734;2022-11-06T20:54:10;100351.88;;;8.77;100.00
48790;BME280;41718;51.980;5.734;2022-11-06T20:59:15;100362.34;;;8.88;100.00
48790;BME280;41718;51.980;5.734;2022-11-06T21:04:21;100351.97;;;8.85;100.00
48790;BME280;41718;51.980;5.734;2022-11-06T21:09:23;100365.09;;;9.00;100.00
48790;BME280;41718;51.980;5.734;2022-11-06T21:14:25;100376.28;;;9.00;100.00
48790;BME280;41718;51.980;5.734;2022-11-06T21:19:27;100363.53;;;9.13;100.00
48790;BME280;41718;51.980;5.734;2022-11-06T21:24:30;100371.31;;;9.14;100.00
48790;BME280;41718;51.980;5.734;2022-11-06T21:29:33;100380.13;;;9.32;100.00
48790;BME280;41718;51.980;5.734;2022-11-06T21:34:35;100385.22;;;9.25;100.00
48790;BME280;41718;51.980;5.734;2022-11-06T21:39:37;100392.19;;;9.34;100.00
48790;BME280;41718;51.980;5.734;2022-11-06T21:44:41;100397.34;;;9.33;100.00
48790;BME280;41718;51.980;5.734;2022-11-06T21:49:43;100391.41;;;9.38;100.00
48790;BME280;41718;51.980;5.734;2022-11-06T21:54:53;100406.94;;;9.43;100.00
48790;BME280;41718;51.980;5.734;2022-11-06T22:00:15;100411.34;;;9.50;100.00
48790;BME280;41718;51.980;5.734;2022-11-06T22:05:20;100409.72;;;9.60;100.00
48790;BME280;41718;51.980;5.734;2022-11-06T22:10:23;100405.38;;;9.59;100.00
48790;BME280;41718;51.980;5.734;2022-11-06T22:15:25;100409.75;;;9.63;100.00
48790;BME280;41718;51.980;5.734;2022-11-06T22:20:27;100406.25;;;9.57;100.00
48790;BME280;41718;51.980;5.734;2022-11-06T22:25:29;100408.81;;;9.57;100.00
48790;BME280;41718;51.980;5.734;2022-11-06T22:30:31;100421.78;;;9.61;100.00
48790;BME280;41718;51.980;5.734;2022-11-06T22:35:37;100421.84;;;9.67;100.00
48790;BME280;41718;51.980;5.734;2022-11-06T22:40:38;100421.00;;;9.68;100.00
48790;BME280;41718;51.980;5.734;2022-11-06T22:45:40;100415.03;;;9.73;100.00
48790;BME280;41718;51.980;5.734;2022-11-06T22:50:43;100432.19;;;9.68;100.00
48790;BME280;41718;51.980;5.734;2022-11-06T22:55:54;100438.06;;;9.55;100.00
48790;BME280;41718;51.980;5.734;2022-11-06T23:00:58;100448.50;;;9.63;100.00
48790;BME280;41718;51.980;5.734;2022-11-06T23:06:08;100444.19;;;9.63;100.00
48790;BME280;41718;51.980;5.734;2022-11-06T23:11:12;100447.69;;;9.67;100.00
48790;BME280;41718;51.980;5.734;2022-11-06T23:16:15;100458.03;;;9.67;100.00
48790;BME280;41718;51.980;5.734;2022-11-06T23:21:17;100468.34;;;9.65;100.00
48790;BME280;41718;51.980;5.734;2022-11-06T23:26:19;100476.16;;;9.71;100.00
48790;BME280;41718;51.980;5.734;2022-11-06T23:31:21;100468.38;;;9.70;100.00
48790;BME280;41718;51.980;5.734;2022-11-06T23:36:22;100478.75;;;9.73;100.00
48790;BME280;41718;51.980;5.734;2022-11-06T23:41:24;100477.97;;;9.80;100.00
48790;BME280;41718;51.980;5.734;2022-11-06T23:46:45;100476.31;;;9.83;100.00
48790;BME280;41718;51.980;5.734;2022-11-06T23:51:46;100479.81;;;9.89;100.00
48790;BME280;41718;51.980;5.734;2022-11-06T23:56:48;100482.53;;;9.99;100.00
